sensor_id;sensor_type;location;lat;lon;timestamp;P1;durP1;ratioP1;P2;durP2;ratioP2
42876;SDS011;42341;40.498;72.818;2023-02-28T00:00:27;91.93;;;47.80;;
42876;SDS011;42341;40.498;72.818;2023-02-28T00:02:53;104.03;;;56.70;;
42876;SDS011;42341;40.498;72.818;2023-02-28T00:05:20;114.90;;;63.72;;
42876;SDS011;42341;40.498;72.818;2023-02-28T00:07:48;162.38;;;90.65;;
42876;SDS011;42341;40.498;72.818;2023-02-28T00:10:16;151.95;;;82.22;;
42876;SDS011;42341;40.498;72.818;2023-02-28T00:12:50;199.50;;;110.57;;
42876;SDS011;42341;40.498;72.818;2023-02-28T00:15:17;127.45;;;68.93;;
42876;SDS011;42341;40.498;72.818;2023-02-28T00:17:43;108.97;;;57.20;;
42876;SDS011;42341;40.498;72.818;2023-02-28T00:20:10;111.70;;;58.50;;
42876;SDS011;42341;40.498;72.818;2023-02-28T00:22:37;102.63;;;53.33;;
42876;SDS011;42341;40.498;72.818;2023-02-28T00:25:05;110.78;;;54.92;;
42876;SDS011;42341;40.498;72.818;2023-02-28T00:27:32;107.57;;;55.70;;
42876;SDS011;42341;40.498;72.818;2023-02-28T00:29:59;105.40;;;54.00;;
42876;SDS011;42341;40.498;72.818;2023-02-28T00:32:26;101.85;;;50.88;;
42876;SDS011;42341;40.498;72.818;2023-02-28T00:34:52;89.80;;;46.05;;
42876;SDS011;42341;40.498;72.818;2023-02-28T00:37:18;87.78;;;48.05;;
42876;SDS011;42341;40.498;72.818;2023-02-28T00:39:44;101.88;;;51.65;;
42876;SDS011;42341;40.498;72.818;2023-02-28T00:42:10;113.22;;;53.00;;
42876;SDS011;42341;40.498;72.818;2023-02-28T00:44:36;99.35;;;51.38;;
42876;SDS011;42341;40.498;72.818;2023-02-28T00:47:02;108.32;;;54.83;;
42876;SDS011;42341;40.498;72.818;2023-02-28T00:49:28;108.57;;;53.17;;
42876;SDS011;42341;40.498;72.818;2023-02-28T00:51:54;110.05;;;54.90;;
42876;SDS011;42341;40.498;72.818;2023-02-28T00:54:21;111.57;;;57.83;;
42876;SDS011;42341;40.498;72.818;2023-02-28T00:56:48;103.03;;;53.20;;
42876;SDS011;42341;40.498;72.818;2023-02-28T00:59:14;103.20;;;50.15;;
42876;SDS011;42341;40.498;72.818;2023-02-28T01:01:42;110.75;;;54.55;;
42876;SDS011;42341;40.498;72.818;2023-02-28T01:04:08;122.20;;;58.33;;
42876;SDS011;42341;40.498;72.818;2023-02-28T01:06:35;117.05;;;55.17;;
42876;SDS011;42341;40.498;72.818;2023-02-28T01:09:01;113.65;;;54.70;;
42876;SDS011;42341;40.498;72.818;2023-02-28T01:11:27;121.05;;;56.28;;
42876;SDS011;42341;40.498;72.818;2023-02-28T01:13:53;112.03;;;53.15;;
42876;SDS011;42341;40.498;72.818;2023-02-28T01:16:19;120.47;;;56.70;;
42876;SDS011;42341;40.498;72.818;2023-02-28T01:18:45;114.40;;;53.05;;
42876;SDS011;42341;40.498;72.818;2023-02-28T01:21:13;97.30;;;47.70;;
42876;SDS011;42341;40.498;72.818;2023-02-28T01:23:40;105.13;;;49.55;;
42876;SDS011;42341;40.498;72.818;2023-02-28T01:26:07;94.57;;;46.00;;
42876;SDS011;42341;40.498;72.818;2023-02-28T01:28:35;94.47;;;44.95;;
42876;SDS011;42341;40.498;72.818;2023-02-28T01:31:02;99.90;;;47.83;;
42876;SDS011;42341;40.498;72.818;2023-02-28T01:33:28;116.70;;;53.28;;
42876;SDS011;42341;40.498;72.818;2023-02-28T01:36:01;104.03;;;49.30;;
42876;SDS011;42341;40.498;72.818;2023-02-28T01:38:29;96.75;;;46.97;;
42876;SDS011;42341;40.498;72.818;2023-02-28T01:40:55;100.43;;;47.35;;
42876;SDS011;42341;40.498;72.818;2023-02-28T01:43:22;108.00;;;48.88;;
42876;SDS011;42341;40.498;72.818;2023-02-28T01:45:57;94.40;;;44.40;;
42876;SDS011;42341;40.498;72.818;2023-02-28T01:48:31;80.60;;;43.13;;
42876;SDS011;42341;40.498;72.818;2023-02-28T01:51:01;89.00;;;44.83;;
42876;SDS011;42341;40.498;72.818;2023-02-28T01:53:33;94.72;;;44.80;;
42876;SDS011;42341;40.498;72.818;2023-02-28T01:56:04;90.20;;;42.83;;
42876;SDS011;42341;40.498;72.818;2023-02-28T01:58:32;98.63;;;46.67;;
42876;SDS011;42341;40.498;72.818;2023-02-28T02:00:58;99.32;;;46.53;;
42876;SDS011;42341;40.498;72.818;2023-02-28T02:03:24;93.03;;;47.60;;
42876;SDS011;42341;40.498;72.818;2023-02-28T02:05:50;101.22;;;49.28;;
42876;SDS011;42341;40.498;72.818;2023-02-28T02:08:17;95.65;;;47.33;;
42876;SDS011;42341;40.498;72.818;2023-02-28T02:10:58;91.82;;;44.67;;
42876;SDS011;42341;40.498;72.818;2023-02-28T02:13:49;95.53;;;41.08;;
42876;SDS011;42341;40.498;72.818;2023-02-28T02:19:52;89.72;;;41.85;;
42876;SDS011;42341;40.498;72.818;2023-02-28T02:23:27;88.63;;;43.20;;
42876;SDS011;42341;40.498;72.818;2023-02-28T02:25:54;105.43;;;41.40;;
42876;SDS011;42341;40.498;72.818;2023-02-28T02:28:35;92.00;;;41.17;;
42876;SDS011;42341;40.498;72.818;2023-02-28T02:31:27;94.40;;;40.40;;
42876;SDS011;42341;40.498;72.818;2023-02-28T02:36:42;89.60;;;41.08;;
42876;SDS011;42341;40.498;72.818;2023-02-28T02:39:20;105.00;;;52.38;;
42876;SDS011;42341;40.498;72.818;2023-02-28T02:41:55;90.45;;;42.63;;
42876;SDS011;42341;40.498;72.818;2023-02-28T02:44:28;87.43;;;42.92;;
42876;SDS011;42341;40.498;72.818;2023-02-28T02:47:03;83.60;;;37.00;;
42876;SDS011;42341;40.498;72.818;2023-02-28T02:49:35;78.53;;;38.65;;
42876;SDS011;42341;40.498;72.818;2023-02-28T02:52:04;95.82;;;40.47;;
42876;SDS011;42341;40.498;72.818;2023-02-28T02:54:38;106.97;;;46.47;;
42876;SDS011;42341;40.498;72.818;2023-02-28T02:57:10;96.13;;;44.70;;
42876;SDS011;42341;40.498;72.818;2023-02-28T02:59:47;81.63;;;39.15;;
42876;SDS011;42341;40.498;72.818;2023-02-28T03:02:15;80.93;;;37.03;;
42876;SDS011;42341;40.498;72.818;2023-02-28T03:04:48;72.95;;;38.47;;
42876;SDS011;42341;40.498;72.818;2023-02-28T03:07:17;87.95;;;38.50;;
42876;SDS011;42341;40.498;72.818;2023-02-28T03:09:53;76.43;;;35.10;;
42876;SDS011;42341;40.498;72.818;2023-02-28T03:12:20;95.80;;;38.10;;
42876;SDS011;42341;40.498;72.818;2023-02-28T03:23:19;66.75;;;33.75;;
42876;SDS011;42341;40.498;72.818;2023-02-28T03:26:02;74.80;;;34.95;;
42876;SDS011;42341;40.498;72.818;2023-02-28T03:31:15;58.67;;;32.10;;
42876;SDS011;42341;40.498;72.818;2023-02-28T03:33:47;87.70;;;42.22;;
42876;SDS011;42341;40.498;72.818;2023-02-28T03:36:21;76.88;;;36.90;;
42876;SDS011;42341;40.498;72.818;2023-02-28T03:38:59;55.10;;;27.73;;
42876;SDS011;42341;40.498;72.818;2023-02-28T03:41:31;61.25;;;27.05;;
42876;SDS011;42341;40.498;72.818;2023-02-28T03:44:21;61.80;;;28.35;;
42876;SDS011;42341;40.498;72.818;2023-02-28T03:47:00;48.63;;;24.27;;
42876;SDS011;42341;40.498;72.818;2023-02-28T03:49:37;52.67;;;22.17;;
42876;SDS011;42341;40.498;72.818;2023-02-28T03:52:10;42.22;;;21.48;;
42876;SDS011;42341;40.498;72.818;2023-02-28T03:54:44;47.00;;;21.23;;
42876;SDS011;42341;40.498;72.818;2023-02-28T03:57:18;46.35;;;24.70;;
42876;SDS011;42341;40.498;72.818;2023-02-28T04:00:05;48.42;;;23.13;;
42876;SDS011;42341;40.498;72.818;2023-02-28T04:02:58;41.70;;;19.92;;
42876;SDS011;42341;40.498;72.818;2023-02-28T04:05:24;34.38;;;19.40;;
42876;SDS011;42341;40.498;72.818;2023-02-28T04:07:52;36.00;;;19.63;;
42876;SDS011;42341;40.498;72.818;2023-02-28T04:10:19;50.80;;;21.65;;
42876;SDS011;42341;40.498;72.818;2023-02-28T04:12:45;40.30;;;21.20;;
42876;SDS011;42341;40.498;72.818;2023-02-28T04:15:11;36.85;;;17.92;;
42876;SDS011;42341;40.498;72.818;2023-02-28T04:17:37;27.98;;;16.67;;
42876;SDS011;42341;40.498;72.818;2023-02-28T04:20:03;30.73;;;16.88;;
42876;SDS011;42341;40.498;72.818;2023-02-28T04:22:35;38.42;;;16.70;;
42876;SDS011;42341;40.498;72.818;2023-02-28T04:25:02;36.50;;;17.05;;
42876;SDS011;42341;40.498;72.818;2023-02-28T04:27:28;36.00;;;18.27;;
42876;SDS011;42341;40.498;72.818;2023-02-28T04:29:54;39.38;;;21.85;;
42876;SDS011;42341;40.498;72.818;2023-02-28T04:32:20;34.10;;;19.48;;
42876;SDS011;42341;40.498;72.818;2023-02-28T04:34:46;45.35;;;21.90;;
42876;SDS011;42341;40.498;72.818;2023-02-28T04:37:12;37.78;;;21.35;;
42876;SDS011;42341;40.498;72.818;2023-02-28T04:39:38;48.53;;;24.98;;
42876;SDS011;42341;40.498;72.818;2023-02-28T04:42:04;48.92;;;29.70;;
42876;SDS011;42341;40.498;72.818;2023-02-28T04:44:30;50.63;;;27.75;;
42876;SDS011;42341;40.498;72.818;2023-02-28T04:46:56;57.58;;;37.17;;
42876;SDS011;42341;40.498;72.818;2023-02-28T04:49:22;45.00;;;26.40;;
42876;SDS011;42341;40.498;72.818;2023-02-28T04:51:48;54.95;;;35.63;;
42876;SDS011;42341;40.498;72.818;2023-02-28T04:54:15;54.08;;;35.13;;
42876;SDS011;42341;40.498;72.818;2023-02-28T04:56:41;54.53;;;35.47;;
42876;SDS011;42341;40.498;72.818;2023-02-28T04:59:07;51.50;;;33.53;;
42876;SDS011;42341;40.498;72.818;2023-02-28T05:01:33;53.08;;;35.28;;
42876;SDS011;42341;40.498;72.818;2023-02-28T05:04:02;53.45;;;34.95;;
42876;SDS011;42341;40.498;72.818;2023-02-28T05:06:30;55.10;;;34.55;;
42876;SDS011;42341;40.498;72.818;2023-02-28T05:08:58;52.22;;;35.65;;
42876;SDS011;42341;40.498;72.818;2023-02-28T05:13:52;50.42;;;35.25;;
42876;SDS011;42341;40.498;72.818;2023-02-28T05:16:19;50.65;;;35.00;;
42876;SDS011;42341;40.498;72.818;2023-02-28T05:18:45;52.42;;;35.08;;
42876;SDS011;42341;40.498;72.818;2023-02-28T05:21:21;59.45;;;37.17;;
42876;SDS011;42341;40.498;72.818;2023-02-28T05:23:51;48.63;;;34.80;;
42876;SDS011;42341;40.498;72.818;2023-02-28T05:26:19;52.17;;;36.10;;
42876;SDS011;42341;40.498;72.818;2023-02-28T05:28:45;47.10;;;32.92;;
42876;SDS011;42341;40.498;72.818;2023-02-28T05:31:11;50.00;;;32.10;;
42876;SDS011;42341;40.498;72.818;2023-02-28T05:33:37;39.10;;;25.92;;
42876;SDS011;42341;40.498;72.818;2023-02-28T05:36:03;45.42;;;32.10;;
42876;SDS011;42341;40.498;72.818;2023-02-28T05:38:29;47.25;;;32.45;;
42876;SDS011;42341;40.498;72.818;2023-02-28T05:40:55;35.15;;;26.63;;
42876;SDS011;42341;40.498;72.818;2023-02-28T05:43:21;61.55;;;36.92;;
42876;SDS011;42341;40.498;72.818;2023-02-28T05:45:48;48.55;;;35.33;;
42876;SDS011;42341;40.498;72.818;2023-02-28T05:48:14;58.22;;;38.35;;
42876;SDS011;42341;40.498;72.818;2023-02-28T05:50:40;58.65;;;37.80;;
42876;SDS011;42341;40.498;72.818;2023-02-28T05:53:07;59.35;;;39.15;;
42876;SDS011;42341;40.498;72.818;2023-02-28T05:55:33;68.50;;;42.42;;
42876;SDS011;42341;40.498;72.818;2023-02-28T05:58:01;70.45;;;46.08;;
42876;SDS011;42341;40.498;72.818;2023-02-28T06:00:27;71.63;;;46.17;;
42876;SDS011;42341;40.498;72.818;2023-02-28T06:02:53;69.97;;;45.95;;
42876;SDS011;42341;40.498;72.818;2023-02-28T06:05:21;84.85;;;53.75;;
42876;SDS011;42341;40.498;72.818;2023-02-28T06:07:47;115.05;;;72.60;;
42876;SDS011;42341;40.498;72.818;2023-02-28T06:10:13;120.18;;;73.20;;
42876;SDS011;42341;40.498;72.818;2023-02-28T06:12:40;111.82;;;75.20;;
42876;SDS011;42341;40.498;72.818;2023-02-28T06:15:07;107.72;;;73.25;;
42876;SDS011;42341;40.498;72.818;2023-02-28T06:17:42;102.38;;;69.22;;
42876;SDS011;42341;40.498;72.818;2023-02-28T06:20:09;112.80;;;78.30;;
42876;SDS011;42341;40.498;72.818;2023-02-28T06:22:38;122.10;;;70.05;;
42876;SDS011;42341;40.498;72.818;2023-02-28T06:25:05;117.55;;;73.47;;
42876;SDS011;42341;40.498;72.818;2023-02-28T06:27:32;116.53;;;72.72;;
42876;SDS011;42341;40.498;72.818;2023-02-28T06:29:59;111.63;;;74.45;;
42876;SDS011;42341;40.498;72.818;2023-02-28T06:32:25;120.38;;;76.60;;
42876;SDS011;42341;40.498;72.818;2023-02-28T06:34:51;118.22;;;76.78;;
42876;SDS011;42341;40.498;72.818;2023-02-28T06:37:18;112.53;;;76.68;;
42876;SDS011;42341;40.498;72.818;2023-02-28T06:39:44;142.07;;;84.80;;
42876;SDS011;42341;40.498;72.818;2023-02-28T06:42:10;124.72;;;85.30;;
42876;SDS011;42341;40.498;72.818;2023-02-28T07:00:19;128.70;;;87.97;;
42876;SDS011;42341;40.498;72.818;2023-02-28T07:02:45;136.52;;;89.45;;
42876;SDS011;42341;40.498;72.818;2023-02-28T07:05:12;131.70;;;89.25;;
42876;SDS011;42341;40.498;72.818;2023-02-28T07:07:38;136.77;;;90.57;;
42876;SDS011;42341;40.498;72.818;2023-02-28T07:10:09;132.05;;;87.15;;
42876;SDS011;42341;40.498;72.818;2023-02-28T07:12:36;128.95;;;87.25;;
42876;SDS011;42341;40.498;72.818;2023-02-28T07:15:03;131.30;;;89.72;;
42876;SDS011;42341;40.498;72.818;2023-02-28T07:17:30;133.15;;;90.60;;
42876;SDS011;42341;40.498;72.818;2023-02-28T07:19:56;135.75;;;89.38;;
42876;SDS011;42341;40.498;72.818;2023-02-28T07:22:22;129.48;;;87.25;;
42876;SDS011;42341;40.498;72.818;2023-02-28T07:24:50;133.77;;;87.90;;
42876;SDS011;42341;40.498;72.818;2023-02-28T07:27:16;134.02;;;90.13;;
42876;SDS011;42341;40.498;72.818;2023-02-28T07:29:52;127.88;;;87.88;;
42876;SDS011;42341;40.498;72.818;2023-02-28T07:32:18;126.05;;;85.68;;
42876;SDS011;42341;40.498;72.818;2023-02-28T07:34:45;133.55;;;88.88;;
42876;SDS011;42341;40.498;72.818;2023-02-28T07:37:11;138.02;;;87.50;;
42876;SDS011;42341;40.498;72.818;2023-02-28T07:39:37;136.48;;;87.00;;
42876;SDS011;42341;40.498;72.818;2023-02-28T07:42:06;130.68;;;87.88;;
42876;SDS011;42341;40.498;72.818;2023-02-28T07:44:35;136.32;;;87.85;;
42876;SDS011;42341;40.498;72.818;2023-02-28T07:47:08;125.32;;;87.20;;
42876;SDS011;42341;40.498;72.818;2023-02-28T07:49:38;130.35;;;88.75;;
42876;SDS011;42341;40.498;72.818;2023-02-28T07:52:05;135.02;;;86.15;;
42876;SDS011;42341;40.498;72.818;2023-02-28T07:54:32;128.68;;;86.72;;
42876;SDS011;42341;40.498;72.818;2023-02-28T07:56:58;148.98;;;89.53;;
42876;SDS011;42341;40.498;72.818;2023-02-28T07:59:24;141.18;;;90.50;;
42876;SDS011;42341;40.498;72.818;2023-02-28T08:01:50;131.70;;;87.13;;
42876;SDS011;42341;40.498;72.818;2023-02-28T08:04:17;139.35;;;88.82;;
42876;SDS011;42341;40.498;72.818;2023-02-28T08:06:44;134.65;;;87.32;;
42876;SDS011;42341;40.498;72.818;2023-02-28T08:09:10;148.63;;;89.68;;
42876;SDS011;42341;40.498;72.818;2023-02-28T08:11:36;152.15;;;91.72;;
42876;SDS011;42341;40.498;72.818;2023-02-28T08:14:02;154.35;;;94.05;;
42876;SDS011;42341;40.498;72.818;2023-02-28T08:16:28;150.38;;;94.85;;
42876;SDS011;42341;40.498;72.818;2023-02-28T08:18:54;145.82;;;94.40;;
42876;SDS011;42341;40.498;72.818;2023-02-28T08:21:20;149.98;;;91.53;;
42876;SDS011;42341;40.498;72.818;2023-02-28T08:23:49;151.43;;;93.70;;
42876;SDS011;42341;40.498;72.818;2023-02-28T08:26:16;139.30;;;88.18;;
42876;SDS011;42341;40.498;72.818;2023-02-28T08:28:43;138.32;;;87.70;;
42876;SDS011;42341;40.498;72.818;2023-02-28T08:31:10;139.63;;;91.60;;
42876;SDS011;42341;40.498;72.818;2023-02-28T08:33:38;145.63;;;88.93;;
42876;SDS011;42341;40.498;72.818;2023-02-28T08:36:05;139.88;;;87.25;;
42876;SDS011;42341;40.498;72.818;2023-02-28T08:38:32;149.32;;;91.60;;
42876;SDS011;42341;40.498;72.818;2023-02-28T08:40:59;153.60;;;95.10;;
42876;SDS011;42341;40.498;72.818;2023-02-28T08:43:27;153.35;;;91.43;;
42876;SDS011;42341;40.498;72.818;2023-02-28T08:45:56;148.48;;;93.82;;
42876;SDS011;42341;40.498;72.818;2023-02-28T08:48:23;162.80;;;98.00;;
42876;SDS011;42341;40.498;72.818;2023-02-28T08:50:57;160.52;;;96.30;;
42876;SDS011;42341;40.498;72.818;2023-02-28T08:53:24;149.88;;;92.82;;
42876;SDS011;42341;40.498;72.818;2023-02-28T08:56:00;171.23;;;95.57;;
42876;SDS011;42341;40.498;72.818;2023-02-28T08:58:28;154.02;;;95.75;;
42876;SDS011;42341;40.498;72.818;2023-02-28T09:00:54;170.52;;;99.80;;
42876;SDS011;42341;40.498;72.818;2023-02-28T09:03:21;161.85;;;95.18;;
42876;SDS011;42341;40.498;72.818;2023-02-28T09:06:00;150.25;;;91.47;;
42876;SDS011;42341;40.498;72.818;2023-02-28T09:08:26;141.45;;;87.35;;
42876;SDS011;42341;40.498;72.818;2023-02-28T09:10:54;150.43;;;91.65;;
42876;SDS011;42341;40.498;72.818;2023-02-28T09:13:22;135.43;;;85.22;;
42876;SDS011;42341;40.498;72.818;2023-02-28T09:15:48;146.45;;;88.07;;
42876;SDS011;42341;40.498;72.818;2023-02-28T09:18:14;143.82;;;90.97;;
42876;SDS011;42341;40.498;72.818;2023-02-28T09:20:41;145.30;;;88.05;;
42876;SDS011;42341;40.498;72.818;2023-02-28T09:23:07;140.93;;;88.60;;
42876;SDS011;42341;40.498;72.818;2023-02-28T09:25:34;138.85;;;88.43;;
42876;SDS011;42341;40.498;72.818;2023-02-28T09:28:00;139.40;;;90.57;;
42876;SDS011;42341;40.498;72.818;2023-02-28T09:30:26;148.02;;;91.40;;
42876;SDS011;42341;40.498;72.818;2023-02-28T09:32:53;146.90;;;90.43;;
42876;SDS011;42341;40.498;72.818;2023-02-28T09:35:20;164.98;;;95.30;;
42876;SDS011;42341;40.498;72.818;2023-02-28T09:37:50;167.10;;;97.05;;
42876;SDS011;42341;40.498;72.818;2023-02-28T09:40:17;156.15;;;92.82;;
42876;SDS011;42341;40.498;72.818;2023-02-28T09:42:45;150.73;;;92.88;;
42876;SDS011;42341;40.498;72.818;2023-02-28T09:45:18;166.85;;;97.18;;
42876;SDS011;42341;40.498;72.818;2023-02-28T09:47:45;158.75;;;96.70;;
42876;SDS011;42341;40.498;72.818;2023-02-28T09:52:51;156.57;;;93.03;;
42876;SDS011;42341;40.498;72.818;2023-02-28T09:57:51;149.38;;;95.03;;
42876;SDS011;42341;40.498;72.818;2023-02-28T10:05:41;160.10;;;97.10;;
42876;SDS011;42341;40.498;72.818;2023-02-28T10:08:36;154.90;;;96.15;;
42876;SDS011;42341;40.498;72.818;2023-02-28T10:11:12;150.52;;;95.55;;
42876;SDS011;42341;40.498;72.818;2023-02-28T10:13:52;163.90;;;99.88;;
42876;SDS011;42341;40.498;72.818;2023-02-28T10:22:25;169.00;;;98.05;;
42876;SDS011;42341;40.498;72.818;2023-02-28T10:25:18;160.32;;;99.05;;
42876;SDS011;42341;40.498;72.818;2023-02-28T10:27:46;154.73;;;98.57;;
42876;SDS011;42341;40.498;72.818;2023-02-28T10:30:12;165.05;;;98.22;;
42876;SDS011;42341;40.498;72.818;2023-02-28T10:32:39;165.70;;;98.35;;
42876;SDS011;42341;40.498;72.818;2023-02-28T10:37:44;160.27;;;99.95;;
42876;SDS011;42341;40.498;72.818;2023-02-28T10:43:11;151.50;;;97.10;;
42876;SDS011;42341;40.498;72.818;2023-02-28T10:45:39;180.23;;;101.38;;
42876;SDS011;42341;40.498;72.818;2023-02-28T10:55:59;168.70;;;98.07;;
42876;SDS011;42341;40.498;72.818;2023-02-28T10:58:59;199.40;;;102.47;;
42876;SDS011;42341;40.498;72.818;2023-02-28T11:03:57;164.75;;;97.47;;
42876;SDS011;42341;40.498;72.818;2023-02-28T11:06:31;163.85;;;96.75;;
42876;SDS011;42341;40.498;72.818;2023-02-28T11:08:59;172.00;;;101.50;;
42876;SDS011;42341;40.498;72.818;2023-02-28T11:11:29;174.38;;;102.88;;
42876;SDS011;42341;40.498;72.818;2023-02-28T11:14:14;169.98;;;101.55;;
42876;SDS011;42341;40.498;72.818;2023-02-28T11:16:45;164.95;;;102.25;;
42876;SDS011;42341;40.498;72.818;2023-02-28T11:19:19;173.23;;;98.53;;
42876;SDS011;42341;40.498;72.818;2023-02-28T11:21:56;173.23;;;100.30;;
42876;SDS011;42341;40.498;72.818;2023-02-28T11:27:00;170.68;;;98.50;;
42876;SDS011;42341;40.498;72.818;2023-02-28T11:29:27;182.13;;;103.85;;
42876;SDS011;42341;40.498;72.818;2023-02-28T11:34:31;198.40;;;109.18;;
42876;SDS011;42341;40.498;72.818;2023-02-28T11:36:58;173.38;;;99.00;;
42876;SDS011;42341;40.498;72.818;2023-02-28T11:39:26;166.70;;;94.75;;
42876;SDS011;42341;40.498;72.818;2023-02-28T11:41:55;173.60;;;100.50;;
42876;SDS011;42341;40.498;72.818;2023-02-28T11:44:58;171.88;;;96.97;;
42876;SDS011;42341;40.498;72.818;2023-02-28T11:47:48;171.77;;;95.78;;
42876;SDS011;42341;40.498;72.818;2023-02-28T11:56:05;176.32;;;100.00;;
42876;SDS011;42341;40.498;72.818;2023-02-28T11:58:45;176.68;;;93.68;;
42876;SDS011;42341;40.498;72.818;2023-02-28T12:07:27;150.07;;;87.75;;
42876;SDS011;42341;40.498;72.818;2023-02-28T12:10:20;142.43;;;84.13;;
42876;SDS011;42341;40.498;72.818;2023-02-28T12:15:50;149.45;;;82.00;;
42876;SDS011;42341;40.498;72.818;2023-02-28T12:21:05;161.20;;;87.93;;
42876;SDS011;42341;40.498;72.818;2023-02-28T12:27:06;146.63;;;82.55;;
42876;SDS011;42341;40.498;72.818;2023-02-28T12:29:46;150.57;;;84.40;;
42876;SDS011;42341;40.498;72.818;2023-02-28T12:32:27;154.82;;;82.85;;
42876;SDS011;42341;40.498;72.818;2023-02-28T12:34:57;165.18;;;90.57;;
42876;SDS011;42341;40.498;72.818;2023-02-28T12:40:55;236.35;;;124.68;;
42876;SDS011;42341;40.498;72.818;2023-02-28T12:43:40;215.35;;;112.22;;
42876;SDS011;42341;40.498;72.818;2023-02-28T12:46:21;212.85;;;115.60;;
42876;SDS011;42341;40.498;72.818;2023-02-28T12:48:52;249.85;;;132.13;;
42876;SDS011;42341;40.498;72.818;2023-02-28T12:51:22;251.00;;;138.35;;
42876;SDS011;42341;40.498;72.818;2023-02-28T12:53:53;221.45;;;121.93;;
42876;SDS011;42341;40.498;72.818;2023-02-28T12:56:46;215.30;;;113.93;;
42876;SDS011;42341;40.498;72.818;2023-02-28T12:59:40;210.75;;;120.55;;
42876;SDS011;42341;40.498;72.818;2023-02-28T13:02:18;188.82;;;106.55;;
42876;SDS011;42341;40.498;72.818;2023-02-28T13:08:09;198.90;;;108.07;;
42876;SDS011;42341;40.498;72.818;2023-02-28T13:10:42;216.30;;;122.05;;
42876;SDS011;42341;40.498;72.818;2023-02-28T13:13:20;226.68;;;125.43;;
42876;SDS011;42341;40.498;72.818;2023-02-28T13:21:08;304.38;;;170.50;;
42876;SDS011;42341;40.498;72.818;2023-02-28T13:29:03;298.95;;;171.90;;
42876;SDS011;42341;40.498;72.818;2023-02-28T13:34:38;331.48;;;189.23;;
42876;SDS011;42341;40.498;72.818;2023-02-28T13:39:48;299.35;;;181.30;;
42876;SDS011;42341;40.498;72.818;2023-02-28T13:42:32;312.85;;;183.57;;
42876;SDS011;42341;40.498;72.818;2023-02-28T13:47:33;302.88;;;186.30;;
42876;SDS011;42341;40.498;72.818;2023-02-28T13:55:28;315.23;;;190.38;;
42876;SDS011;42341;40.498;72.818;2023-02-28T14:01:26;356.30;;;211.00;;
42876;SDS011;42341;40.498;72.818;2023-02-28T14:06:48;429.70;;;245.30;;
42876;SDS011;42341;40.498;72.818;2023-02-28T14:09:30;497.15;;;265.85;;
42876;SDS011;42341;40.498;72.818;2023-02-28T14:20:47;474.08;;;267.80;;
42876;SDS011;42341;40.498;72.818;2023-02-28T14:23:17;480.13;;;275.65;;
42876;SDS011;42341;40.498;72.818;2023-02-28T14:26:03;462.17;;;272.58;;
42876;SDS011;42341;40.498;72.818;2023-02-28T14:32:03;607.35;;;343.95;;
42876;SDS011;42341;40.498;72.818;2023-02-28T14:37:11;598.80;;;346.23;;
42876;SDS011;42341;40.498;72.818;2023-02-28T14:39:43;589.80;;;336.05;;
42876;SDS011;42341;40.498;72.818;2023-02-28T14:44:57;497.33;;;282.95;;
42876;SDS011;42341;40.498;72.818;2023-02-28T14:47:24;455.70;;;263.65;;
42876;SDS011;42341;40.498;72.818;2023-02-28T14:49:59;495.02;;;282.40;;
42876;SDS011;42341;40.498;72.818;2023-02-28T14:52:29;454.20;;;265.13;;
42876;SDS011;42341;40.498;72.818;2023-02-28T15:09:28;375.88;;;219.57;;
42876;SDS011;42341;40.498;72.818;2023-02-28T15:11:48;373.25;;;218.35;;
42876;SDS011;42341;40.498;72.818;2023-02-28T15:14:19;341.58;;;206.32;;
42876;SDS011;42341;40.498;72.818;2023-02-28T15:16:49;353.77;;;212.73;;
42876;SDS011;42341;40.498;72.818;2023-02-28T15:19:22;349.20;;;205.02;;
42876;SDS011;42341;40.498;72.818;2023-02-28T15:21:54;537.17;;;350.25;;
42876;SDS011;42341;40.498;72.818;2023-02-28T15:24:31;330.83;;;199.25;;
42876;SDS011;42341;40.498;72.818;2023-02-28T15:27:07;362.48;;;197.15;;
42876;SDS011;42341;40.498;72.818;2023-02-28T15:29:48;380.67;;;201.57;;
42876;SDS011;42341;40.498;72.818;2023-02-28T15:32:21;340.38;;;193.40;;
42876;SDS011;42341;40.498;72.818;2023-02-28T15:34:53;332.98;;;190.65;;
42876;SDS011;42341;40.498;72.818;2023-02-28T15:40:10;317.50;;;177.63;;
42876;SDS011;42341;40.498;72.818;2023-02-28T15:42:42;281.33;;;156.50;;
42876;SDS011;42341;40.498;72.818;2023-02-28T15:45:32;249.88;;;143.63;;
42876;SDS011;42341;40.498;72.818;2023-02-28T15:48:13;263.48;;;144.63;;
42876;SDS011;42341;40.498;72.818;2023-02-28T15:50:40;248.88;;;141.25;;
42876;SDS011;42341;40.498;72.818;2023-02-28T15:53:12;241.05;;;136.40;;
42876;SDS011;42341;40.498;72.818;2023-02-28T15:55:40;252.82;;;142.20;;
42876;SDS011;42341;40.498;72.818;2023-02-28T15:58:08;255.48;;;139.32;;
42876;SDS011;42341;40.498;72.818;2023-02-28T16:00:38;261.83;;;141.02;;
42876;SDS011;42341;40.498;72.818;2023-02-28T16:03:23;264.48;;;145.60;;
42876;SDS011;42341;40.498;72.818;2023-02-28T16:08:41;286.23;;;152.13;;
42876;SDS011;42341;40.498;72.818;2023-02-28T16:11:10;295.42;;;160.90;;
42876;SDS011;42341;40.498;72.818;2023-02-28T16:13:36;299.10;;;157.75;;
42876;SDS011;42341;40.498;72.818;2023-02-28T16:16:02;278.70;;;150.70;;
42876;SDS011;42341;40.498;72.818;2023-02-28T16:18:29;283.38;;;147.45;;
42876;SDS011;42341;40.498;72.818;2023-02-28T16:20:55;270.80;;;149.43;;
42876;SDS011;42341;40.498;72.818;2023-02-28T16:23:21;284.30;;;154.02;;
42876;SDS011;42341;40.498;72.818;2023-02-28T16:25:47;279.88;;;156.50;;
42876;SDS011;42341;40.498;72.818;2023-02-28T16:28:20;290.60;;;161.75;;
42876;SDS011;42341;40.498;72.818;2023-02-28T16:30:51;317.15;;;176.48;;
42876;SDS011;42341;40.498;72.818;2023-02-28T16:33:17;282.60;;;152.13;;
42876;SDS011;42341;40.498;72.818;2023-02-28T16:35:43;256.98;;;139.88;;
42876;SDS011;42341;40.498;72.818;2023-02-28T16:38:09;260.30;;;141.40;;
42876;SDS011;42341;40.498;72.818;2023-02-28T16:40:35;265.75;;;138.85;;
42876;SDS011;42341;40.498;72.818;2023-02-28T16:43:04;261.95;;;141.57;;
42876;SDS011;42341;40.498;72.818;2023-02-28T16:45:34;265.75;;;145.77;;
42876;SDS011;42341;40.498;72.818;2023-02-28T16:48:00;259.67;;;139.80;;
42876;SDS011;42341;40.498;72.818;2023-02-28T16:50:29;254.80;;;132.18;;
42876;SDS011;42341;40.498;72.818;2023-02-28T16:52:57;257.17;;;138.20;;
42876;SDS011;42341;40.498;72.818;2023-02-28T16:55:23;255.27;;;136.00;;
42876;SDS011;42341;40.498;72.818;2023-02-28T16:57:52;241.07;;;128.88;;
42876;SDS011;42341;40.498;72.818;2023-02-28T17:00:20;224.70;;;118.28;;
42876;SDS011;42341;40.498;72.818;2023-02-28T17:02:47;218.55;;;119.93;;